Time;durP1;ratioP1;P1;durP2;ratioP2;P2;SDS_P1;SDS_P2;PMS_P1;PMS_P2;Temp;Humidity;BMP_temperature;BMP_pressure;BME280_temperature;BME280_humidity;BME280_pressure;Samples;Min_cycle;Max_cycle;Signal;HPM_P1;HPM_P2
2022/09/24 00:00:55;;;;;;;110.88;64.40;;;;;;;;;;5046385;28;20044;-59
2022/09/24 00:03:22;;;;;;;103.07;60.85;;;;;;;;;;5046247;28;20081;-59
2022/09/24 00:05:49;;;;;;;111.53;63.67;;;;;;;;;;5039134;28;20172;-59
2022/09/24 00:08:16;;;;;;;116.65;65.85;;;;;;;;;;5042125;28;20345;-59
2022/09/24 00:10:43;;;;;;;115.63;63.38;;;;;;;;;;5021315;28;20481;-59
2022/09/24 00:13:11;;;;;;;116.95;62.58;;;;;;;;;;5039823;28;20191;-59
2022/09/24 00:15:38;;;;;;;115.05;62.20;;;;;;;;;;5041068;28;20045;-59
2022/09/24 00:18:04;;;;;;;118.10;64.85;;;;;;;;;;5039820;28;20090;-59
2022/09/24 00:20:31;;;;;;;126.88;65.13;;;;;;;;;;5043750;28;20056;-59
2022/09/24 00:22:58;;;;;;;118.10;61.15;;;;;;;;;;5039296;28;20581;-59
2022/09/24 00:28:09;;;;;;;116.45;58.63;;;;;;;;;;5041556;28;20045;-59
2022/09/24 00:30:42;;;;;;;128.57;63.97;;;;;;;;;;5042723;28;20144;-59
2022/09/24 00:33:09;;;;;;;117.38;58.88;;;;;;;;;;5023021;28;20072;-59
2022/09/24 00:35:36;;;;;;;135.05;63.13;;;;;;;;;;5042794;28;20041;-59
2022/09/24 00:38:04;;;;;;;139.75;64.25;;;;;;;;;;5041865;28;20045;-59
2022/09/24 00:40:31;;;;;;;128.48;62.67;;;;;;;;;;5041668;28;20063;-59
2022/09/24 00:42:58;;;;;;;139.20;62.22;;;;;;;;;;5046130;28;20063;-59
2022/09/24 00:45:25;;;;;;;147.43;63.55;;;;;;;;;;5038994;28;20486;-59
2022/09/24 00:47:52;;;;;;;131.27;58.13;;;;;;;;;;5036949;28;20416;-59
2022/09/24 00:50:21;;;;;;;133.98;62.17;;;;;;;;;;5041764;28;20061;-59
2022/09/24 00:52:50;;;;;;;125.10;57.38;;;;;;;;;;5038142;28;20065;-59
2022/09/24 00:55:18;;;;;;;165.68;66.35;;;;;;;;;;5042242;28;20052;-59
2022/09/24 00:57:45;;;;;;;145.65;63.58;;;;;;;;;;5036500;28;20469;-59
2022/09/24 01:00:11;;;;;;;159.13;67.93;;;;;;;;;;5037290;28;20140;-59
2022/09/24 01:02:38;;;;;;;144.23;63.92;;;;;;;;;;5037449;28;20037;-59
2022/09/24 01:05:05;;;;;;;116.03;57.97;;;;;;;;;;5045349;28;20052;-59
2022/09/24 01:07:31;;;;;;;137.73;64.13;;;;;;;;;;5043260;28;20365;-59
2022/09/24 01:09:58;;;;;;;160.98;64.13;;;;;;;;;;5042589;28;20068;-59
2022/09/24 01:12:32;;;;;;;137.98;64.22;;;;;;;;;;5039128;28;20077;-59
2022/09/24 01:15:10;;;;;;;141.30;62.90;;;;;;;;;;5036968;28;20116;-59
2022/09/24 01:17:37;;;;;;;142.40;63.38;;;;;;;;;;5038964;28;20052;-59
2022/09/24 01:20:11;;;;;;;116.82;57.67;;;;;;;;;;5041817;28;20092;-59
2022/09/24 01:22:38;;;;;;;105.15;58.65;;;;;;;;;;5020331;28;20043;-59
2022/09/24 01:25:09;;;;;;;148.63;63.53;;;;;;;;;;5044467;28;20040;-59
2022/09/24 01:27:55;;;;;;;183.88;69.03;;;;;;;;;;5040352;28;20045;-59
2022/09/24 01:30:21;;;;;;;139.52;64.75;;;;;;;;;;5040344;28;20049;-59
2022/09/24 01:32:54;;;;;;;135.40;61.33;;;;;;;;;;5038269;28;20053;-59
2022/09/24 01:35:38;;;;;;;148.57;63.30;;;;;;;;;;5042211;28;20103;-59
2022/09/24 01:38:08;;;;;;;138.43;62.05;;;;;;;;;;5039499;28;20041;-59
2022/09/24 01:40:36;;;;;;;107.72;54.00;;;;;;;;;;5038621;28;20097;-59
2022/09/24 01:43:04;;;;;;;114.45;55.33;;;;;;;;;;5037062;28;20151;-59
2022/09/24 01:45:31;;;;;;;108.05;55.33;;;;;;;;;;5036220;28;20439;-59
2022/09/24 01:48:00;;;;;;;102.80;51.15;;;;;;;;;;5038731;28;20107;-59
2022/09/24 01:50:28;;;;;;;108.18;51.40;;;;;;;;;;5041239;28;20168;-59
2022/09/24 01:53:03;;;;;;;90.03;46.75;;;;;;;;;;5042020;28;20053;-59
2022/09/24 01:55:33;;;;;;;73.95;39.67;;;;;;;;;;5046874;28;20029;-59
2022/09/24 01:58:03;;;;;;;69.47;36.22;;;;;;;;;;5042600;28;20121;-59
2022/09/24 02:00:29;;;;;;;60.90;31.05;;;;;;;;;;5046989;28;20625;-59
2022/09/24 02:02:58;;;;;;;53.58;28.15;;;;;;;;;;5020650;28;20049;-59
2022/09/24 02:05:31;;;;;;;45.33;24.33;;;;;;;;;;5019342;28;20051;-59
2022/09/24 02:08:04;;;;;;;36.95;18.63;;;;;;;;;;5038690;28;20041;-59
2022/09/24 02:10:34;;;;;;;39.03;17.20;;;;;;;;;;5039347;28;20475;-59
2022/09/24 02:13:03;;;;;;;23.83;11.05;;;;;;;;;;5040651;28;20243;-59
2022/09/24 02:15:36;;;;;;;29.33;10.15;;;;;;;;;;5039786;28;20044;-59
2022/09/24 02:18:04;;;;;;;16.40;7.20;;;;;;;;;;5040496;28;20049;-59
2022/09/24 02:20:30;;;;;;;22.48;6.03;;;;;;;;;;5041139;28;20102;-59
2022/09/24 02:22:57;;;;;;;25.23;6.03;;;;;;;;;;5038518;28;20537;-59
2022/09/24 02:25:26;;;;;;;22.63;6.15;;;;;;;;;;5038145;28;20045;-59
2022/09/24 02:27:52;;;;;;;18.98;5.05;;;;;;;;;;5039803;28;20504;-59
2022/09/24 02:30:18;;;;;;;20.05;3.95;;;;;;;;;;5036996;28;20041;-59
2022/09/24 02:32:45;;;;;;;12.40;3.88;;;;;;;;;;5039099;28;20052;-59
2022/09/24 02:35:12;;;;;;;17.73;3.95;;;;;;;;;;5041776;28;20102;-59
2022/09/24 02:37:40;;;;;;;19.02;4.60;;;;;;;;;;5040697;28;20159;-59
2022/09/24 02:40:08;;;;;;;13.32;3.72;;;;;;;;;;5039054;28;20048;-59
2022/09/24 02:42:34;;;;;;;17.67;3.72;;;;;;;;;;5043323;28;20124;-59
2022/09/24 02:45:01;;;;;;;17.65;3.65;;;;;;;;;;5038968;28;20396;-59
2022/09/24 02:47:28;;;;;;;14.77;3.30;;;;;;;;;;5037926;28;20056;-59
2022/09/24 02:49:54;;;;;;;16.90;4.60;;;;;;;;;;5040880;28;20486;-60
2022/09/24 02:52:21;;;;;;;11.98;3.20;;;;;;;;;;5038313;28;20051;-59
2022/09/24 02:54:49;;;;;;;13.20;3.00;;;;;;;;;;5043065;28;20049;-59
2022/09/24 02:57:15;;;;;;;15.75;2.92;;;;;;;;;;5038507;28;20057;-59
2022/09/24 02:59:42;;;;;;;17.83;3.30;;;;;;;;;;5039582;28;20095;-59
2022/09/24 03:02:08;;;;;;;22.02;4.30;;;;;;;;;;5039369;28;20124;-59
2022/09/24 03:04:34;;;;;;;16.08;3.08;;;;;;;;;;5041669;28;20099;-59
2022/09/24 03:07:00;;;;;;;16.92;3.33;;;;;;;;;;5038483;28;20057;-59
2022/09/24 03:09:26;;;;;;;28.40;4.30;;;;;;;;;;5044958;28;20037;-59
2022/09/24 03:11:52;;;;;;;13.77;3.55;;;;;;;;;;5045544;28;20055;-59
2022/09/24 03:14:18;;;;;;;16.48;3.08;;;;;;;;;;5040884;28;20125;-59
2022/09/24 03:16:45;;;;;;;16.02;3.42;;;;;;;;;;5046481;28;20123;-59
2022/09/24 03:19:11;;;;;;;18.08;3.95;;;;;;;;;;5044196;28;20079;-59
2022/09/24 03:21:37;;;;;;;17.02;3.38;;;;;;;;;;5038250;28;20045;-59
2022/09/24 03:24:03;;;;;;;14.65;3.22;;;;;;;;;;5044735;28;20037;-59
2022/09/24 03:26:29;;;;;;;13.35;2.60;;;;;;;;;;5043042;28;21312;-59
2022/09/24 03:28:55;;;;;;;13.73;3.38;;;;;;;;;;5041191;28;20037;-59
2022/09/24 03:31:23;;;;;;;19.25;2.92;;;;;;;;;;5044226;28;20047;-59
2022/09/24 03:33:49;;;;;;;14.50;2.85;;;;;;;;;;5043227;28;20048;-60
2022/09/24 03:36:18;;;;;;;18.85;3.47;;;;;;;;;;5042347;28;21713;-59
2022/09/24 03:38:45;;;;;;;16.17;2.97;;;;;;;;;;5045637;28;20041;-59
2022/09/24 03:41:11;;;;;;;16.85;2.85;;;;;;;;;;5044012;28;20115;-59
2022/09/24 03:43:38;;;;;;;18.33;3.13;;;;;;;;;;5040537;28;20589;-59
2022/09/24 03:46:06;;;;;;;13.48;3.10;;;;;;;;;;5042662;28;20120;-59
2022/09/24 03:48:33;;;;;;;16.58;3.65;;;;;;;;;;5040784;28;20041;-59
2022/09/24 03:51:02;;;;;;;16.08;2.95;;;;;;;;;;5044793;28;20076;-59
2022/09/24 03:53:29;;;;;;;19.17;2.83;;;;;;;;;;5041291;28;20442;-59
2022/09/24 03:55:56;;;;;;;22.70;2.67;;;;;;;;;;5047983;28;20045;-59
2022/09/24 03:58:23;;;;;;;26.10;5.28;;;;;;;;;;5039641;28;20041;-59
2022/09/24 04:00:51;;;;;;;15.48;2.53;;;;;;;;;;5044870;28;20487;-59
2022/09/24 04:03:17;;;;;;;20.63;2.95;;;;;;;;;;5043675;28;20615;-59
2022/09/24 04:05:43;;;;;;;8.55;2.72;;;;;;;;;;5044049;28;20057;-59
2022/09/24 04:08:09;;;;;;;15.70;2.85;;;;;;;;;;5042158;28;20175;-59
2022/09/24 04:10:35;;;;;;;17.33;3.53;;;;;;;;;;5045749;28;20084;-59
2022/09/24 04:13:02;;;;;;;17.50;3.05;;;;;;;;;;5042134;28;20045;-59
2022/09/24 04:15:29;;;;;;;16.35;3.05;;;;;;;;;;5044393;28;20057;-59
2022/09/24 04:17:56;;;;;;;15.93;2.80;;;;;;;;;;5040232;28;20128;-59
2022/09/24 04:20:23;;;;;;;15.27;2.45;;;;;;;;;;5051197;28;20059;-58
2022/09/24 04:22:50;;;;;;;7.72;2.15;;;;;;;;;;5038317;28;20057;-59
2022/09/24 04:25:16;;;;;;;14.15;2.58;;;;;;;;;;5039345;28;20698;-59
2022/09/24 04:27:43;;;;;;;16.73;2.90;;;;;;;;;;5043055;28;20128;-59
2022/09/24 04:30:11;;;;;;;8.57;2.22;;;;;;;;;;5044114;28;20036;-59
2022/09/24 04:32:37;;;;;;;8.40;1.50;;;;;;;;;;5040694;28;20159;-59
2022/09/24 04:35:04;;;;;;;10.43;1.88;;;;;;;;;;5041886;28;20069;-59
2022/09/24 04:37:30;;;;;;;8.90;1.67;;;;;;;;;;5022835;28;20518;-59
2022/09/24 04:39:56;;;;;;;13.98;2.40;;;;;;;;;;5041723;28;20118;-59
2022/09/24 04:42:23;;;;;;;12.27;1.52;;;;;;;;;;5040735;28;21187;-59
2022/09/24 04:44:49;;;;;;;15.23;1.80;;;;;;;;;;5039884;28;20037;-59
2022/09/24 04:47:15;;;;;;;11.60;3.13;;;;;;;;;;5022471;28;20536;-59
2022/09/24 04:49:43;;;;;;;13.32;2.83;;;;;;;;;;5043989;28;20078;-59
2022/09/24 04:52:10;;;;;;;23.63;2.58;;;;;;;;;;5042117;28;20147;-59
2022/09/24 04:54:36;;;;;;;15.05;2.38;;;;;;;;;;5043624;28;20064;-59
2022/09/24 04:57:02;;;;;;;13.18;1.90;;;;;;;;;;5038553;28;20067;-59
2022/09/24 04:59:28;;;;;;;11.90;2.65;;;;;;;;;;5046754;28;20189;-59
2022/09/24 05:01:54;;;;;;;9.02;1.95;;;;;;;;;;5042423;28;20092;-59
2022/09/24 05:04:20;;;;;;;13.35;1.80;;;;;;;;;;5040149;28;20041;-60
2022/09/24 05:06:47;;;;;;;15.90;2.08;;;;;;;;;;5038298;28;20539;-60
2022/09/24 05:09:13;;;;;;;11.27;2.05;;;;;;;;;;5045664;28;20131;-59
2022/09/24 05:11:39;;;;;;;12.63;1.73;;;;;;;;;;5042551;28;20041;-59
2022/09/24 05:14:07;;;;;;;14.32;2.42;;;;;;;;;;5048600;28;20041;-59
2022/09/24 05:16:33;;;;;;;13.77;2.40;;;;;;;;;;5048414;28;20480;-60
2022/09/24 05:19:00;;;;;;;10.25;2.28;;;;;;;;;;5043054;28;20085;-59
2022/09/24 05:21:27;;;;;;;14.57;2.95;;;;;;;;;;5041958;28;21184;-59
2022/09/24 05:23:53;;;;;;;9.85;2.05;;;;;;;;;;5043192;28;20049;-59
2022/09/24 05:29:03;;;;;;;13.23;2.65;;;;;;;;;;5041656;28;20089;-60
2022/09/24 05:31:30;;;;;;;15.00;1.95;;;;;;;;;;5042396;28;20072;-60
2022/09/24 05:33:56;;;;;;;15.52;2.03;;;;;;;;;;5043357;28;20040;-59
2022/09/24 05:36:22;;;;;;;15.68;2.58;;;;;;;;;;5049271;28;20387;-59
2022/09/24 05:38:49;;;;;;;13.20;2.45;;;;;;;;;;5043117;28;20273;-60
2022/09/24 05:41:15;;;;;;;8.50;1.75;;;;;;;;;;5032320;28;20032;-60
2022/09/24 05:43:41;;;;;;;15.32;2.42;;;;;;;;;;5050389;28;20079;-60
2022/09/24 05:46:07;;;;;;;14.35;2.65;;;;;;;;;;5047652;28;20135;-59
2022/09/24 05:48:33;;;;;;;11.18;1.92;;;;;;;;;;5048369;28;20047;-59
2022/09/24 05:51:00;;;;;;;16.10;2.20;;;;;;;;;;5051198;28;20472;-59
2022/09/24 05:53:26;;;;;;;9.80;1.90;;;;;;;;;;5061984;28;20160;-59
2022/09/24 05:55:53;;;;;;;9.80;2.72;;;;;;;;;;5058731;28;20049;-59
2022/09/24 05:58:19;;;;;;;11.15;1.80;;;;;;;;;;5049176;28;20040;-59
2022/09/24 06:00:45;;;;;;;9.23;2.38;;;;;;;;;;5055366;28;20480;-59
2022/09/24 06:03:14;;;;;;;13.82;2.20;;;;;;;;;;5056517;28;20036;-59
2022/09/24 06:05:45;;;;;;;12.63;2.10;;;;;;;;;;5056479;28;20052;-59
2022/09/24 06:08:11;;;;;;;13.57;1.80;;;;;;;;;;5055119;28;20567;-59
2022/09/24 06:10:38;;;;;;;10.75;1.92;;;;;;;;;;5037084;28;20131;-59
2022/09/24 06:13:04;;;;;;;15.27;2.35;;;;;;;;;;5054421;28;20037;-59
2022/09/24 06:15:30;;;;;;;10.07;1.70;;;;;;;;;;5054604;28;20040;-59
2022/09/24 06:17:56;;;;;;;10.65;1.70;;;;;;;;;;5050805;28;20048;-59
2022/09/24 06:20:23;;;;;;;7.78;2.00;;;;;;;;;;5049421;28;20388;-59
2022/09/24 06:22:49;;;;;;;8.05;1.40;;;;;;;;;;5050623;28;20059;-59
2022/09/24 06:25:15;;;;;;;11.65;2.05;;;;;;;;;;5047547;28;20189;-59
2022/09/24 06:27:41;;;;;;;7.97;1.92;;;;;;;;;;5050746;28;20044;-59
2022/09/24 06:30:08;;;;;;;9.10;1.65;;;;;;;;;;5046079;28;20472;-59
2022/09/24 06:32:34;;;;;;;12.32;2.38;;;;;;;;;;5049728;28;20061;-59
2022/09/24 06:35:00;;;;;;;17.65;2.40;;;;;;;;;;5047077;28;20037;-59
2022/09/24 06:37:26;;;;;;;14.43;2.33;;;;;;;;;;5052188;28;20036;-59
2022/09/24 06:39:53;;;;;;;13.23;2.03;;;;;;;;;;5050349;28;20064;-59
2022/09/24 06:42:19;;;;;;;12.25;2.15;;;;;;;;;;5034064;28;20369;-59
2022/09/24 06:44:45;;;;;;;15.50;2.38;;;;;;;;;;5048507;28;20127;-59
2022/09/24 06:47:12;;;;;;;13.75;1.92;;;;;;;;;;5050384;28;20142;-59
2022/09/24 06:49:38;;;;;;;9.85;2.10;;;;;;;;;;5047047;28;20055;-59
2022/09/24 06:52:04;;;;;;;10.30;1.88;;;;;;;;;;5046795;28;20064;-59
2022/09/24 06:54:32;;;;;;;20.30;3.75;;;;;;;;;;5055456;28;20068;-59
2022/09/24 06:56:58;;;;;;;13.55;2.75;;;;;;;;;;5060237;28;20048;-59
2022/09/24 06:59:24;;;;;;;12.48;2.85;;;;;;;;;;5055412;28;20040;-59
2022/09/24 07:01:50;;;;;;;19.50;2.60;;;;;;;;;;5031809;28;20566;-59
2022/09/24 07:04:17;;;;;;;13.00;2.10;;;;;;;;;;5049128;28;20041;-59
2022/09/24 07:09:27;;;;;;;14.98;3.22;;;;;;;;;;5045943;28;20056;-59
2022/09/24 07:11:56;;;;;;;18.25;2.08;;;;;;;;;;5057035;28;20124;-59
2022/09/24 07:14:23;;;;;;;13.43;2.20;;;;;;;;;;5052582;28;20123;-59
2022/09/24 07:16:49;;;;;;;10.68;2.38;;;;;;;;;;5054144;28;20049;-59
2022/09/24 07:19:15;;;;;;;11.57;2.28;;;;;;;;;;5053016;28;20121;-59
2022/09/24 07:21:41;;;;;;;17.90;3.83;;;;;;;;;;5048509;28;20063;-59
2022/09/24 07:24:07;;;;;;;12.05;2.10;;;;;;;;;;5046440;28;20059;-59
2022/09/24 07:26:34;;;;;;;12.63;1.77;;;;;;;;;;5052704;28;20076;-59
2022/09/24 07:29:00;;;;;;;15.20;2.67;;;;;;;;;;5048736;28;20381;-59
2022/09/24 07:31:26;;;;;;;15.35;2.50;;;;;;;;;;5050956;28;20508;-59
2022/09/24 07:33:53;;;;;;;13.02;2.47;;;;;;;;;;5059040;28;20041;-59
2022/09/24 07:36:19;;;;;;;13.30;2.63;;;;;;;;;;5057692;28;20178;-59
2022/09/24 07:38:45;;;;;;;8.07;2.05;;;;;;;;;;5045752;28;20051;-59
2022/09/24 07:41:11;;;;;;;16.40;2.60;;;;;;;;;;5042891;28;20048;-59
2022/09/24 07:43:37;;;;;;;16.75;3.45;;;;;;;;;;5044953;28;20076;-59
2022/09/24 07:46:04;;;;;;;17.13;3.22;;;;;;;;;;5044655;28;20049;-59
2022/09/24 07:48:30;;;;;;;15.10;2.88;;;;;;;;;;5043582;28;20117;-59
2022/09/24 07:50:56;;;;;;;15.43;2.58;;;;;;;;;;5039228;28;20053;-59
2022/09/24 07:53:23;;;;;;;13.27;2.33;;;;;;;;;;5046826;28;20115;-59
2022/09/24 07:55:49;;;;;;;13.60;2.70;;;;;;;;;;5046039;28;20066;-60
2022/09/24 07:58:15;;;;;;;15.02;2.55;;;;;;;;;;5046395;28;20033;-60
2022/09/24 08:00:42;;;;;;;14.05;2.50;;;;;;;;;;5045880;28;20039;-59
2022/09/24 08:03:08;;;;;;;12.63;2.70;;;;;;;;;;5046085;28;20076;-59
2022/09/24 08:05:34;;;;;;;14.23;2.22;;;;;;;;;;5045392;28;20056;-59
2022/09/24 08:08:00;;;;;;;17.15;3.35;;;;;;;;;;5045814;28;20103;-59
2022/09/24 08:10:27;;;;;;;15.35;2.40;;;;;;;;;;5044605;28;20075;-59
2022/09/24 08:12:55;;;;;;;11.57;2.28;;;;;;;;;;5044296;28;20041;-59
2022/09/24 08:15:22;;;;;;;16.38;2.55;;;;;;;;;;5043494;28;20053;-59
2022/09/24 08:17:48;;;;;;;13.02;2.30;;;;;;;;;;5042200;28;20119;-59
2022/09/24 08:20:14;;;;;;;17.65;2.97;;;;;;;;;;5043153;28;20089;-59
2022/09/24 08:22:40;;;;;;;12.80;2.92;;;;;;;;;;5041349;28;20055;-59
2022/09/24 08:25:07;;;;;;;14.90;2.50;;;;;;;;;;5046294;28;20096;-59
2022/09/24 08:27:35;;;;;;;14.13;2.97;;;;;;;;;;5043303;28;20131;-59
2022/09/24 08:30:01;;;;;;;13.02;2.00;;;;;;;;;;5045563;28;20071;-59
2022/09/24 08:32:28;;;;;;;14.32;3.30;;;;;;;;;;5044420;28;20053;-59
2022/09/24 08:34:54;;;;;;;15.65;1.98;;;;;;;;;;5044454;28;20056;-59
2022/09/24 08:37:20;;;;;;;13.77;2.05;;;;;;;;;;5045775;28;20041;-59
2022/09/24 08:39:47;;;;;;;16.38;2.38;;;;;;;;;;5045643;28;20044;-59
2022/09/24 08:42:20;;;;;;;8.55;1.75;;;;;;;;;;5044209;28;20373;-59
2022/09/24 08:47:36;;;;;;;16.00;3.47;;;;;;;;;;5044587;28;20123;-60
2022/09/24 08:50:08;;;;;;;14.15;2.33;;;;;;;;;;5047613;28;20496;-59
2022/09/24 08:52:40;;;;;;;15.35;2.50;;;;;;;;;;5022900;28;20440;-60
2022/09/24 08:55:20;;;;;;;9.95;2.33;;;;;;;;;;5033902;28;20069;-60
2022/09/24 08:57:50;;;;;;;11.80;2.15;;;;;;;;;;5034312;28;20061;-60
2022/09/24 09:00:16;;;;;;;13.18;1.88;;;;;;;;;;5032096;28;20054;-60
2022/09/24 09:02:47;;;;;;;15.02;2.40;;;;;;;;;;5032156;28;20154;-61
2022/09/24 09:05:14;;;;;;;10.55;2.22;;;;;;;;;;5033673;28;20087;-61
2022/09/24 09:07:47;;;;;;;12.75;2.35;;;;;;;;;;5030232;28;20087;-60
2022/09/24 09:10:15;;;;;;;11.23;2.35;;;;;;;;;;5033527;28;20444;-61
2022/09/24 09:12:44;;;;;;;9.45;2.20;;;;;;;;;;5032291;28;20111;-60
2022/09/24 09:15:14;;;;;;;9.98;2.17;;;;;;;;;;5030977;28;20060;-60
2022/09/24 09:17:41;;;;;;;13.43;2.30;;;;;;;;;;5029973;28;20083;-60
2022/09/24 09:20:12;;;;;;;10.73;1.65;;;;;;;;;;5026044;28;20047;-60
2022/09/24 09:22:41;;;;;;;17.48;2.80;;;;;;;;;;5027232;28;20116;-60
2022/09/24 09:25:19;;;;;;;11.80;2.30;;;;;;;;;;5029007;28;20053;-60
2022/09/24 09:27:47;;;;;;;14.18;2.15;;;;;;;;;;5027330;28;20110;-61
2022/09/24 09:30:15;;;;;;;11.02;2.90;;;;;;;;;;5022929;28;20049;-60
2022/09/24 09:32:46;;;;;;;13.57;2.95;;;;;;;;;;5021631;28;20041;-60
2022/09/24 09:35:13;;;;;;;10.20;1.98;;;;;;;;;;5026577;28;20065;-61
2022/09/24 09:37:53;;;;;;;11.82;2.08;;;;;;;;;;5027367;28;20397;-60
2022/09/24 09:40:25;;;;;;;9.52;2.10;;;;;;;;;;5028107;28;20113;-60
2022/09/24 09:42:58;;;;;;;10.52;1.42;;;;;;;;;;5027606;28;20610;-61
2022/09/24 09:45:31;;;;;;;14.10;2.33;;;;;;;;;;5027245;28;20123;-60
2022/09/24 09:47:58;;;;;;;11.30;2.00;;;;;;;;;;5028315;28;20049;-60
2022/09/24 09:50:27;;;;;;;11.00;1.98;;;;;;;;;;5027025;28;20052;-61
2022/09/24 09:52:54;;;;;;;12.73;2.63;;;;;;;;;;5048775;28;20059;-61
2022/09/24 09:55:22;;;;;;;9.32;1.63;;;;;;;;;;5052476;28;20041;-61
2022/09/24 09:57:50;;;;;;;12.38;2.00;;;;;;;;;;5053413;28;20041;-61
2022/09/24 10:00:27;;;;;;;14.57;2.90;;;;;;;;;;5045370;28;20135;-60
2022/09/24 10:02:54;;;;;;;12.95;2.05;;;;;;;;;;5050118;28;20516;-60
2022/09/24 10:05:21;;;;;;;8.80;2.00;;;;;;;;;;5043729;28;20056;-60
2022/09/24 10:07:47;;;;;;;17.35;2.75;;;;;;;;;;5028589;28;20530;-60
2022/09/24 10:10:14;;;;;;;14.15;2.38;;;;;;;;;;5049983;28;20555;-60
2022/09/24 10:12:41;;;;;;;8.60;1.75;;;;;;;;;;5046727;28;20618;-60
2022/09/24 10:15:14;;;;;;;12.13;2.08;;;;;;;;;;5043091;28;20040;-61
2022/09/24 10:17:40;;;;;;;13.35;1.63;;;;;;;;;;5051539;28;20147;-61
2022/09/24 10:20:08;;;;;;;15.50;1.70;;;;;;;;;;5055709;28;20500;-61
2022/09/24 10:22:35;;;;;;;9.38;1.67;;;;;;;;;;5047279;28;20068;-60
2022/09/24 10:25:01;;;;;;;9.48;2.00;;;;;;;;;;5050774;28;20044;-60
2022/09/24 10:27:32;;;;;;;17.45;1.75;;;;;;;;;;5049291;28;20183;-61
2022/09/24 10:32:44;;;;;;;12.55;1.90;;;;;;;;;;5046752;28;20048;-60
2022/09/24 10:35:22;;;;;;;9.50;1.60;;;;;;;;;;5049421;28;20049;-60
2022/09/24 10:37:52;;;;;;;16.80;2.25;;;;;;;;;;5052896;28;20095;-60
2022/09/24 10:40:22;;;;;;;9.07;1.98;;;;;;;;;;5047983;28;20049;-60
2022/09/24 10:42:59;;;;;;;11.65;2.10;;;;;;;;;;5044206;28;20119;-61
2022/09/24 10:45:31;;;;;;;16.40;3.38;;;;;;;;;;5044149;28;20098;-61
2022/09/24 10:48:07;;;;;;;11.50;1.45;;;;;;;;;;5048365;28;20473;-60
2022/09/24 10:50:33;;;;;;;13.50;1.92;;;;;;;;;;5046357;28;20128;-60
2022/09/24 10:53:03;;;;;;;10.40;1.50;;;;;;;;;;5048678;28;20464;-61
2022/09/24 10:55:30;;;;;;;11.52;2.10;;;;;;;;;;5050908;28;20515;-60
2022/09/24 10:58:01;;;;;;;12.48;1.55;;;;;;;;;;5046956;28;20037;-61
2022/09/24 11:00:38;;;;;;;7.35;1.58;;;;;;;;;;5048097;28;20410;-61
2022/09/24 11:03:23;;;;;;;11.80;2.08;;;;;;;;;;5042351;28;20543;-60
2022/09/24 11:05:52;;;;;;;11.00;1.63;;;;;;;;;;5044814;28;20048;-60
2022/09/24 11:08:18;;;;;;;7.30;1.50;;;;;;;;;;5045694;28;20041;-60
2022/09/24 11:10:45;;;;;;;10.55;1.88;;;;;;;;;;5047616;28;20117;-62
2022/09/24 11:13:15;;;;;;;8.55;1.83;;;;;;;;;;5060452;28;20063;-60
2022/09/24 11:15:45;;;;;;;6.80;1.80;;;;;;;;;;5065717;28;20503;-61
2022/09/24 11:18:11;;;;;;;8.02;1.15;;;;;;;;;;5059288;28;20049;-60
2022/09/24 11:20:38;;;;;;;6.30;1.38;;;;;;;;;;5062426;28;20039;-62
2022/09/24 11:23:07;;;;;;;8.05;1.63;;;;;;;;;;5056674;28;20040;-60
2022/09/24 11:25:40;;;;;;;7.88;1.58;;;;;;;;;;5054832;28;20399;-61
2022/09/24 11:28:25;;;;;;;5.60;1.17;;;;;;;;;;5047671;28;20555;-61
2022/09/24 11:30:58;;;;;;;11.23;1.58;;;;;;;;;;5062722;28;20049;-61
2022/09/24 11:33:40;;;;;;;11.05;1.40;;;;;;;;;;5055849;28;20354;-60
2022/09/24 11:36:10;;;;;;;6.93;1.58;;;;;;;;;;5052350;28;20088;-61
2022/09/24 11:38:43;;;;;;;10.02;1.35;;;;;;;;;;5053151;28;20483;-61
2022/09/24 11:41:12;;;;;;;8.52;1.13;;;;;;;;;;5032210;28;20087;-63
2022/09/24 11:43:48;;;;;;;10.02;1.92;;;;;;;;;;5056068;28;20127;-61
2022/09/24 11:46:15;;;;;;;7.47;1.20;;;;;;;;;;5061085;28;20492;-61
2022/09/24 11:48:49;;;;;;;6.97;1.52;;;;;;;;;;5043230;28;20040;-61
2022/09/24 11:51:25;;;;;;;7.55;1.42;;;;;;;;;;5052977;28;20082;-61
2022/09/24 11:54:02;;;;;;;7.85;1.33;;;;;;;;;;5060957;28;20545;-61
2022/09/24 11:56:31;;;;;;;13.30;2.10;;;;;;;;;;5055140;28;20133;-61
2022/09/24 11:59:02;;;;;;;6.22;1.35;;;;;;;;;;5061242;28;20518;-60
2022/09/24 12:01:31;;;;;;;10.55;1.90;;;;;;;;;;5057462;28;20408;-60
2022/09/24 12:04:02;;;;;;;5.57;1.52;;;;;;;;;;5048500;28;20033;-61
2022/09/24 12:06:31;;;;;;;10.35;1.50;;;;;;;;;;5056186;28;20040;-61
2022/09/24 12:09:03;;;;;;;10.07;1.70;;;;;;;;;;5058600;28;20041;-61
2022/09/24 12:11:33;;;;;;;11.82;2.28;;;;;;;;;;5058258;28;20036;-61
2022/09/24 12:14:12;;;;;;;11.82;2.00;;;;;;;;;;5061438;28;20047;-60
2022/09/24 12:16:40;;;;;;;12.23;1.67;;;;;;;;;;5056175;28;20040;-61
2022/09/24 12:19:11;;;;;;;14.27;2.05;;;;;;;;;;5062335;28;20127;-61
2022/09/24 12:21:40;;;;;;;7.82;1.58;;;;;;;;;;5058589;28;20048;-61
2022/09/24 12:24:13;;;;;;;7.18;1.40;;;;;;;;;;5058415;28;20044;-61
2022/09/24 12:26:41;;;;;;;9.77;1.88;;;;;;;;;;5059320;28;20036;-61
2022/09/24 12:34:49;;;;;;;12.73;2.15;;;;;;;;;;5060331;28;20060;-61
2022/09/24 12:37:18;;;;;;;7.10;1.20;;;;;;;;;;5057079;28;20121;-61
2022/09/24 12:39:50;;;;;;;10.77;1.45;;;;;;;;;;5059100;28;20072;-61
2022/09/24 12:42:18;;;;;;;5.50;1.40;;;;;;;;;;5056903;28;20064;-60
2022/09/24 12:44:48;;;;;;;9.00;1.80;;;;;;;;;;5057998;28;20040;-61
2022/09/24 12:47:17;;;;;;;9.85;1.95;;;;;;;;;;5057555;28;20350;-61
2022/09/24 12:49:47;;;;;;;12.38;1.73;;;;;;;;;;5061057;28;20123;-61
2022/09/24 12:52:24;;;;;;;7.68;1.50;;;;;;;;;;5056606;28;20091;-61
2022/09/24 12:54:58;;;;;;;10.82;2.30;;;;;;;;;;5059485;28;20404;-61
2022/09/24 12:57:26;;;;;;;14.00;1.95;;;;;;;;;;5056757;28;20440;-61
2022/09/24 12:59:55;;;;;;;12.80;2.60;;;;;;;;;;5057755;28;20040;-61
2022/09/24 13:02:22;;;;;;;8.77;1.60;;;;;;;;;;5060000;28;20040;-61
2022/09/24 13:04:52;;;;;;;10.07;1.92;;;;;;;;;;5058209;28;20052;-61
2022/09/24 13:07:27;;;;;;;6.18;1.13;;;;;;;;;;5061650;28;20036;-61
2022/09/24 13:09:53;;;;;;;7.07;1.85;;;;;;;;;;5059759;28;20063;-61
2022/09/24 13:12:21;;;;;;;16.20;2.15;;;;;;;;;;5060085;28;20136;-60
2022/09/24 13:14:55;;;;;;;11.30;2.03;;;;;;;;;;5059325;28;20044;-60
2022/09/24 13:17:22;;;;;;;11.32;1.55;;;;;;;;;;5056481;28;20136;-61
2022/09/24 13:19:49;;;;;;;13.30;2.03;;;;;;;;;;5036365;28;20080;-61
2022/09/24 13:22:24;;;;;;;5.43;1.30;;;;;;;;;;5054834;28;20033;-61
2022/09/24 13:24:52;;;;;;;8.38;1.65;;;;;;;;;;5058067;28;20045;-61
2022/09/24 13:27:30;;;;;;;13.20;2.55;;;;;;;;;;5058327;28;20466;-61
2022/09/24 13:30:06;;;;;;;10.77;2.05;;;;;;;;;;5059942;28;20074;-61
2022/09/24 13:32:36;;;;;;;9.30;1.65;;;;;;;;;;5037367;28;20401;-61
2022/09/24 13:35:05;;;;;;;9.55;1.60;;;;;;;;;;5053599;28;20037;-61
2022/09/24 13:37:34;;;;;;;11.15;1.65;;;;;;;;;;5059318;28;20366;-61
2022/09/24 13:40:04;;;;;;;7.32;1.60;;;;;;;;;;5060238;28;20369;-61
2022/09/24 13:42:32;;;;;;;9.82;1.38;;;;;;;;;;5054141;28;20053;-61
2022/09/24 13:45:00;;;;;;;6.93;1.10;;;;;;;;;;5059929;28;20051;-61
2022/09/24 13:47:35;;;;;;;8.45;1.20;;;;;;;;;;5056321;28;20382;-61
2022/09/24 13:50:06;;;;;;;14.23;1.73;;;;;;;;;;5058899;28;20072;-61
2022/09/24 13:52:35;;;;;;;7.30;1.40;;;;;;;;;;5051410;28;20055;-61
2022/09/24 13:55:05;;;;;;;9.00;1.17;;;;;;;;;;5060691;28;20040;-61
2022/09/24 13:57:41;;;;;;;6.03;1.13;;;;;;;;;;5054335;28;20064;-61
2022/09/24 14:00:08;;;;;;;9.52;1.63;;;;;;;;;;5054492;28;20064;-61
2022/09/24 14:02:37;;;;;;;4.32;1.17;;;;;;;;;;5053103;28;20053;-61
2022/09/24 14:05:07;;;;;;;9.23;1.63;;;;;;;;;;5058152;28;20044;-61
2022/09/24 14:07:33;;;;;;;5.60;1.40;;;;;;;;;;5059007;28;20045;-60
2022/09/24 14:10:05;;;;;;;12.95;2.22;;;;;;;;;;5031034;28;20102;-61
2022/09/24 14:12:31;;;;;;;11.15;1.77;;;;;;;;;;5055810;28;20072;-61
2022/09/24 14:14:58;;;;;;;8.32;1.75;;;;;;;;;;5021345;28;20052;-61
2022/09/24 14:17:25;;;;;;;7.93;1.38;;;;;;;;;;5043861;28;20037;-61
2022/09/24 14:19:56;;;;;;;7.88;1.38;;;;;;;;;;5044918;28;21511;-61
2022/09/24 14:22:26;;;;;;;12.20;1.95;;;;;;;;;;5039530;28;20250;-61
2022/09/24 14:24:56;;;;;;;8.02;1.73;;;;;;;;;;5046321;28;20410;-60
2022/09/24 14:27:23;;;;;;;8.52;1.95;;;;;;;;;;5042625;28;20106;-60
2022/09/24 14:29:53;;;;;;;12.70;1.42;;;;;;;;;;5046223;28;20072;-60
2022/09/24 14:32:21;;;;;;;9.60;1.45;;;;;;;;;;5050053;28;20041;-61
2022/09/24 14:34:50;;;;;;;7.22;1.67;;;;;;;;;;5023449;28;20037;-60
2022/09/24 14:37:19;;;;;;;8.45;1.20;;;;;;;;;;5045469;28;20052;-61
2022/09/24 14:39:47;;;;;;;11.27;1.70;;;;;;;;;;5048916;28;20923;-60
2022/09/24 14:42:32;;;;;;;7.65;1.65;;;;;;;;;;5049579;28;20040;-60
2022/09/24 14:44:59;;;;;;;9.68;1.35;;;;;;;;;;5040777;28;20444;-60
2022/09/24 14:47:26;;;;;;;8.73;1.52;;;;;;;;;;5043811;28;20044;-60
2022/09/24 14:49:53;;;;;;;7.82;1.90;;;;;;;;;;5041391;28;20084;-60
2022/09/24 14:52:29;;;;;;;12.32;2.45;;;;;;;;;;5041791;28;20053;-60
2022/09/24 14:55:01;;;;;;;7.65;1.13;;;;;;;;;;5045469;28;20048;-60